createdAt,value
2017-05-08T00:00:38.441Z,18.36
2017-05-08T00:03:05.445Z,18.90
2017-05-08T00:05:32.540Z,18.00
2017-05-08T00:07:59.560Z,19.28
2017-05-08T00:10:26.942Z,19.58
2017-05-08T00:12:53.958Z,19.76
2017-05-08T00:15:21.000Z,22.14
2017-05-08T00:17:48.007Z,21.08
2017-05-08T00:20:15.755Z,21.66
2017-05-08T00:22:43.108Z,21.36
2017-05-08T00:25:10.864Z,22.20
2017-05-08T00:27:37.913Z,22.42
2017-05-08T00:30:04.949Z,20.94
2017-05-08T00:32:31.939Z,22.52
2017-05-08T00:35:00.068Z,23.18
2017-05-08T00:37:27.088Z,23.54
2017-05-08T00:39:54.122Z,24.68
2017-05-08T00:42:21.153Z,23.98
2017-05-08T00:44:48.902Z,24.62
2017-05-08T00:47:16.242Z,24.46
2017-05-08T00:49:43.275Z,26.38
2017-05-08T00:52:10.282Z,23.36
2017-05-08T00:54:37.300Z,26.22
2017-05-08T00:57:04.275Z,22.92
2017-05-08T00:59:31.704Z,23.78
2017-05-08T01:01:58.956Z,25.50
2017-05-08T01:04:25.946Z,20.70
2017-05-08T01:06:52.944Z,20.86
2017-05-08T01:09:19.976Z,19.18
2017-05-08T01:11:46.986Z,18.86
2017-05-08T01:14:14.402Z,18.00
2017-05-08T01:16:42.266Z,18.32
2017-05-08T01:19:09.286Z,18.80
2017-05-08T01:21:36.793Z,18.92
2017-05-08T01:24:03.953Z,19.36
2017-05-08T01:26:32.146Z,17.68
2017-05-08T01:28:59.151Z,15.54
2017-05-08T01:31:26.145Z,16.58
2017-05-08T01:33:53.845Z,14.24
2017-05-08T01:36:20.887Z,14.02
2017-05-08T01:38:47.918Z,13.84
2017-05-08T01:41:14.969Z,14.02
2017-05-08T01:43:42.348Z,14.90
2017-05-08T01:46:09.356Z,14.82
2017-05-08T01:48:36.397Z,15.56
2017-05-08T01:51:03.443Z,13.52
2017-05-08T01:53:30.540Z,15.58
2017-05-08T01:55:58.543Z,14.10
2017-05-08T01:58:26.316Z,14.68
2017-05-08T02:00:54.084Z,15.78
2017-05-08T02:03:21.080Z,15.22
2017-05-08T02:05:48.439Z,14.86
2017-05-08T02:08:16.500Z,13.80
2017-05-08T02:10:43.564Z,14.84
2017-05-08T02:13:10.569Z,14.54
2017-05-08T02:15:37.646Z,13.88
2017-05-08T02:18:04.626Z,14.80
2017-05-08T02:20:32.775Z,14.52
2017-05-08T02:22:59.784Z,12.94
2017-05-08T02:25:26.797Z,13.08
2017-05-08T02:27:54.561Z,15.00
2017-05-08T02:30:22.325Z,14.86
2017-05-08T02:32:50.373Z,13.12
2017-05-08T02:35:17.420Z,13.80
2017-05-08T02:37:44.438Z,12.96
2017-05-08T02:40:11.472Z,13.64
2017-05-08T02:42:38.482Z,13.56
2017-05-08T02:45:06.507Z,13.62
2017-05-08T02:47:33.518Z,12.74
2017-05-08T02:50:01.267Z,11.42
2017-05-08T02:52:29.008Z,12.40
2017-05-08T02:54:55.986Z,11.82
2017-05-08T02:57:24.126Z,10.74
2017-05-08T02:59:51.113Z,9.98
2017-05-08T03:02:18.826Z,10.04
2017-05-08T03:04:45.854Z,11.38
2017-05-08T03:07:12.844Z,14.92
2017-05-08T03:09:40.990Z,9.30
2017-05-08T03:12:08.016Z,9.04
2017-05-08T03:14:35.043Z,9.92
2017-05-08T03:17:02.059Z,8.14
2017-05-08T03:19:29.047Z,7.60
2017-05-08T03:21:56.432Z,9.34
2017-05-08T03:24:23.451Z,8.44
2017-05-08T03:26:50.492Z,8.80
2017-05-08T03:29:17.504Z,7.96
2017-05-08T03:31:44.643Z,8.92
2017-05-08T03:34:11.984Z,8.62
2017-05-08T03:36:38.969Z,9.22
2017-05-08T03:39:06.811Z,8.88
2017-05-08T03:41:33.836Z,8.10
2017-05-08T03:44:00.852Z,8.98
2017-05-08T03:46:28.271Z,10.12
2017-05-08T03:48:55.272Z,9.88
2017-05-08T03:51:22.290Z,8.40
2017-05-08T03:53:50.028Z,9.22
2017-05-08T03:56:17.792Z,12.10
2017-05-08T03:58:45.944Z,9.84
2017-05-08T04:01:12.971Z,11.58
2017-05-08T04:03:40.037Z,9.78
2017-05-08T04:06:07.102Z,8.26
2017-05-08T04:08:34.880Z,10.06
2017-05-08T04:11:02.218Z,9.24
2017-05-08T04:13:29.242Z,10.48
2017-05-08T04:15:56.273Z,8.80
2017-05-08T04:18:23.312Z,13.32
2017-05-08T04:20:50.319Z,9.16
2017-05-08T04:23:17.657Z,12.98
2017-05-08T04:25:44.698Z,11.40
2017-05-08T04:28:11.712Z,8.78
2017-05-08T04:30:39.003Z,8.18
2017-05-08T04:33:06.038Z,10.16
2017-05-08T04:35:33.049Z,9.30
2017-05-08T04:38:01.092Z,13.14
2017-05-08T04:40:28.888Z,11.66
2017-05-08T04:42:56.644Z,9.14
2017-05-08T04:45:23.706Z,10.90
2017-05-08T04:47:50.716Z,10.62
2017-05-08T04:50:18.167Z,9.72
2017-05-08T04:52:45.213Z,12.30
2017-05-08T04:55:12.209Z,9.08
2017-05-08T04:57:39.264Z,10.02
2017-05-08T05:00:06.296Z,10.50
2017-05-08T05:02:34.409Z,7.80
2017-05-08T05:05:01.453Z,8.20
2017-05-08T05:07:28.448Z,8.90
2017-05-08T05:09:56.206Z,7.90
2017-05-08T05:12:23.972Z,11.34
2017-05-08T05:14:52.117Z,10.60
2017-05-08T05:17:19.119Z,12.20
2017-05-08T05:19:46.136Z,8.12
2017-05-08T05:22:13.937Z,12.40
2017-05-08T05:24:40.948Z,9.42
2017-05-08T05:27:08.397Z,11.14
2017-05-08T05:29:35.419Z,11.28
2017-05-08T05:32:02.430Z,10.16
2017-05-08T05:34:29.477Z,12.96
2017-05-08T05:36:56.702Z,9.64
2017-05-08T05:39:23.756Z,9.96
2017-05-08T05:41:51.545Z,11.08
2017-05-08T05:44:18.891Z,13.88
2017-05-08T05:46:45.945Z,8.90
2017-05-08T05:49:12.959Z,9.46
2017-05-08T05:51:40.756Z,14.10
2017-05-08T05:54:07.780Z,9.92
2017-05-08T05:56:37.095Z,11.28
2017-05-08T05:59:07.309Z,13.52
2017-05-08T06:01:35.099Z,10.84
2017-05-08T06:04:02.305Z,14.72
2017-05-08T06:06:29.400Z,11.82
2017-05-08T06:08:56.802Z,17.16
2017-05-08T06:11:23.817Z,8.34
2017-05-08T06:13:51.475Z,9.20
2017-05-08T06:16:18.524Z,9.66
2017-05-08T06:18:45.551Z,10.70
2017-05-08T06:21:12.952Z,11.94
2017-05-08T06:23:39.935Z,11.48
2017-05-08T06:26:07.700Z,13.62
2017-05-08T06:28:35.532Z,11.66
2017-05-08T06:31:02.532Z,9.44
2017-05-08T06:33:30.581Z,10.74
2017-05-08T06:35:58.341Z,13.28
2017-05-08T06:38:26.123Z,12.32
2017-05-08T06:40:53.183Z,13.44
2017-05-08T06:43:20.206Z,11.72
2017-05-08T06:45:48.256Z,14.14
2017-05-08T06:48:15.293Z,12.16
2017-05-08T06:50:42.321Z,13.74
2017-05-08T06:53:09.372Z,12.04
2017-05-08T06:55:36.439Z,16.54
2017-05-08T06:58:03.825Z,11.64
2017-05-08T07:00:31.589Z,15.16
2017-05-08T07:02:59.348Z,13.42
2017-05-08T07:05:27.117Z,15.72
2017-05-08T07:07:54.129Z,12.66
2017-05-08T07:10:21.520Z,13.00
2017-05-08T07:12:48.561Z,9.46
2017-05-08T07:15:15.580Z,13.34
2017-05-08T07:17:42.615Z,12.58
2017-05-08T07:20:09.648Z,16.94
2017-05-08T07:22:37.039Z,14.10
2017-05-08T07:25:04.057Z,12.50
2017-05-08T07:27:31.092Z,11.66
2017-05-08T07:29:58.149Z,12.28
2017-05-08T07:32:25.144Z,15.72
2017-05-08T07:34:52.492Z,13.28
2017-05-08T07:37:19.488Z,12.62
2017-05-08T07:39:46.516Z,14.90
2017-05-08T07:42:14.298Z,13.84
2017-05-08T07:44:41.399Z,15.04
2017-05-08T07:47:08.439Z,12.44
2017-05-08T07:49:35.820Z,12.40
2017-05-08T07:52:02.834Z,17.72
2017-05-08T07:54:30.008Z,12.86
2017-05-08T07:56:57.289Z,13.72
2017-05-08T07:59:24.365Z,14.10
2017-05-08T08:01:51.749Z,13.86
2017-05-08T08:04:18.746Z,14.74
2017-05-08T08:06:46.497Z,12.40
2017-05-08T08:09:14.254Z,14.38
2017-05-08T08:11:41.241Z,13.42
2017-05-08T08:14:08.572Z,13.50
2017-05-08T08:16:35.608Z,13.34
2017-05-08T08:19:02.665Z,13.62
2017-05-08T08:21:29.729Z,13.70
2017-05-08T08:23:56.781Z,12.10
2017-05-08T08:26:24.215Z,16.36
2017-05-08T08:28:51.263Z,11.98
2017-05-08T08:31:19.001Z,8.44
2017-05-08T08:33:46.028Z,8.48
2017-05-08T08:36:13.004Z,6.90
2017-05-08T08:38:40.344Z,5.70
2017-05-08T08:41:07.397Z,6.34
2017-05-08T08:43:34.422Z,6.02
2017-05-08T08:46:01.505Z,6.98
2017-05-08T08:48:29.299Z,8.34
2017-05-08T08:50:56.631Z,9.98
2017-05-08T08:53:24.386Z,9.64
2017-05-08T08:55:51.431Z,11.42
2017-05-08T08:58:18.476Z,14.98
2017-05-08T09:00:45.481Z,11.58
2017-05-08T09:03:12.863Z,10.86
2017-05-08T09:05:39.901Z,12.70
2017-05-08T09:08:06.960Z,11.52
2017-05-08T09:10:33.993Z,11.70
2017-05-08T09:13:01.015Z,12.12
2017-05-08T09:15:28.323Z,11.20
2017-05-08T09:17:55.342Z,12.30
2017-05-08T09:20:29.691Z,10.70
2017-05-08T09:22:56.712Z,10.88
2017-05-08T09:25:23.787Z,7.92
2017-05-08T09:27:50.824Z,7.40
2017-05-08T09:30:17.886Z,5.96
2017-05-08T09:32:46.079Z,5.66
2017-05-08T09:35:13.836Z,5.80
2017-05-08T09:37:41.576Z,5.66
2017-05-08T09:40:08.644Z,7.86
2017-05-08T09:42:35.646Z,4.08
2017-05-08T09:45:03.039Z,4.84
2017-05-08T09:47:30.063Z,5.06
2017-05-08T09:49:57.048Z,5.92
2017-05-08T09:52:24.089Z,4.64
2017-05-08T09:54:51.855Z,4.06
2017-05-08T09:57:19.918Z,3.04
2017-05-08T09:59:47.674Z,4.20
2017-05-08T10:02:14.720Z,4.06
2017-05-08T10:04:41.818Z,4.00
2017-05-08T10:07:08.926Z,4.06
2017-05-08T10:09:36.269Z,6.00
2017-05-08T10:12:03.278Z,4.32
2017-05-08T10:14:30.319Z,4.74
2017-05-08T10:16:57.375Z,3.56
2017-05-08T10:19:24.392Z,4.30
2017-05-08T10:21:51.717Z,3.56
2017-05-08T10:24:18.732Z,7.26
2017-05-08T10:26:45.919Z,3.60
2017-05-08T10:29:12.944Z,3.32
2017-05-08T10:31:39.949Z,3.82
2017-05-08T10:34:08.094Z,3.32
2017-05-08T10:36:35.905Z,4.36
2017-05-08T10:39:02.967Z,4.72
2017-05-08T10:41:29.989Z,2.86
2017-05-08T10:43:57.036Z,3.26
2017-05-08T10:46:24.450Z,3.96
2017-05-08T10:48:51.488Z,3.28
2017-05-08T10:51:18.531Z,2.96
2017-05-08T10:53:45.572Z,4.12
2017-05-08T10:56:12.653Z,2.66
2017-05-08T10:58:40.002Z,2.54
2017-05-08T11:01:07.778Z,2.38
2017-05-08T11:03:34.809Z,2.42
2017-05-08T11:06:02.273Z,2.28
2017-05-08T11:08:29.291Z,2.92
2017-05-08T11:10:56.362Z,2.70
2017-05-08T11:13:29.440Z,3.12
2017-05-08T11:15:56.471Z,2.82
2017-05-08T11:18:23.772Z,2.94
2017-05-08T11:20:51.544Z,3.24
2017-05-08T11:23:19.695Z,3.38
2017-05-08T11:25:46.845Z,3.28
2017-05-08T11:28:13.907Z,3.90
2017-05-08T11:30:41.676Z,3.24
2017-05-08T11:33:09.515Z,3.46
2017-05-08T11:35:36.876Z,2.86
2017-05-08T11:38:03.900Z,2.80
2017-05-08T11:40:30.922Z,3.70
2017-05-08T11:42:57.957Z,4.30
2017-05-08T11:45:25.000Z,3.44
2017-05-08T11:47:52.423Z,4.26
2017-05-08T11:50:19.500Z,3.10
2017-05-08T11:52:46.551Z,2.84
2017-05-08T11:55:13.613Z,3.64
2017-05-08T11:57:40.639Z,2.42
2017-05-08T12:00:08.800Z,2.04
2017-05-08T12:02:36.567Z,2.12
2017-05-08T12:05:03.606Z,2.20
2017-05-08T12:07:30.663Z,2.08
2017-05-08T12:09:58.444Z,1.82
2017-05-08T12:12:25.877Z,2.90
2017-05-08T12:14:53.643Z,1.36
2017-05-08T12:17:21.406Z,1.60
2017-05-08T12:19:48.442Z,1.40
2017-05-08T12:22:15.442Z,1.42
2017-05-08T12:24:42.738Z,1.16
2017-05-08T12:27:09.781Z,1.32
2017-05-08T12:29:36.799Z,1.26
2017-05-08T12:32:03.877Z,1.58
2017-05-08T12:34:30.881Z,1.24
2017-05-08T12:36:58.213Z,1.46
2017-05-08T12:39:25.253Z,0.96
2017-05-08T12:41:53.016Z,1.26
2017-05-08T12:44:20.805Z,1.30
2017-05-08T12:46:47.828Z,1.26
2017-05-08T12:49:15.168Z,2.78
2017-05-08T12:51:42.192Z,1.82
2017-05-08T12:54:09.211Z,1.84
2017-05-08T12:56:36.233Z,1.76
2017-05-08T12:59:03.992Z,1.70
2017-05-08T13:01:32.163Z,2.02
2017-05-08T13:03:59.948Z,2.44
2017-05-08T13:06:27.696Z,2.08
2017-05-08T13:08:55.489Z,2.62
2017-05-08T13:11:22.567Z,2.30
2017-05-08T13:13:49.869Z,2.48
2017-05-08T13:16:17.616Z,2.16
2017-05-08T13:18:44.613Z,2.30
2017-05-08T13:21:11.683Z,2.56
2017-05-08T13:23:38.682Z,2.66
2017-05-08T13:26:06.814Z,4.32
2017-05-08T13:28:33.839Z,3.34
2017-05-08T13:31:00.890Z,2.58
2017-05-08T13:33:27.939Z,2.46
2017-05-08T13:35:54.963Z,2.66
2017-05-08T13:38:22.363Z,2.92
2017-05-08T13:40:49.376Z,3.28
2017-05-08T13:43:16.369Z,2.90
2017-05-08T13:45:44.159Z,3.38
2017-05-08T13:48:11.207Z,2.60
2017-05-08T13:50:38.553Z,2.78
2017-05-08T13:53:06.321Z,2.38
2017-05-08T13:55:34.173Z,2.26
2017-05-08T13:58:01.189Z,2.14
2017-05-08T14:00:28.225Z,2.48
2017-05-08T14:02:55.622Z,4.10
2017-05-08T14:05:23.414Z,2.00
2017-05-08T14:07:51.183Z,1.90
2017-05-08T14:10:18.200Z,2.50
2017-05-08T14:12:45.300Z,1.58
2017-05-08T14:15:12.703Z,1.92
2017-05-08T14:17:39.728Z,1.70
2017-05-08T14:20:06.731Z,1.74
2017-05-08T14:22:34.852Z,1.58
2017-05-08T14:25:01.888Z,1.68
2017-05-08T14:27:28.968Z,1.76
2017-05-08T14:29:56.009Z,1.52
2017-05-08T14:32:23.029Z,1.50
2017-05-08T14:34:50.410Z,1.68
2017-05-08T14:37:17.419Z,1.40
2017-05-08T14:39:44.445Z,2.80
2017-05-08T14:42:12.214Z,3.66
2017-05-08T14:44:39.279Z,1.94
2017-05-08T14:47:06.670Z,1.88
2017-05-08T14:49:33.725Z,2.28
2017-05-08T14:52:01.179Z,1.50
2017-05-08T14:54:28.984Z,2.54
2017-05-08T14:56:56.755Z,2.36
2017-05-08T14:59:24.151Z,2.12
2017-05-08T15:01:51.197Z,3.02
2017-05-08T15:04:18.220Z,1.72
2017-05-08T15:06:45.267Z,1.92
2017-05-08T15:09:12.320Z,2.52
2017-05-08T15:11:39.723Z,2.56
2017-05-08T15:14:07.495Z,2.68
2017-05-08T15:16:34.535Z,2.50
2017-05-08T15:19:02.329Z,2.96
2017-05-08T15:21:29.369Z,1.84
2017-05-08T15:23:56.792Z,2.20
2017-05-08T15:26:23.827Z,2.82
2017-05-08T15:28:50.852Z,5.92
2017-05-08T15:31:17.876Z,2.88
2017-05-08T15:33:44.915Z,2.86
2017-05-08T15:36:12.347Z,1.78
2017-05-08T15:38:39.351Z,1.84
2017-05-08T15:41:06.390Z,2.04
2017-05-08T15:43:33.454Z,1.50
2017-05-08T15:46:00.491Z,1.98
2017-05-08T15:48:27.532Z,2.14
2017-05-08T15:50:54.584Z,2.16
2017-05-08T15:53:21.628Z,1.88
2017-05-08T15:55:48.680Z,1.58
2017-05-08T15:58:15.739Z,2.22
2017-05-08T16:00:42.769Z,1.48
2017-05-08T16:03:10.152Z,1.52
2017-05-08T16:05:38.007Z,1.60
2017-05-08T16:08:05.076Z,1.72
2017-05-08T16:10:32.718Z,1.98
2017-05-08T16:13:00.462Z,2.28
2017-05-08T16:15:27.789Z,1.42
2017-05-08T16:17:54.816Z,2.20
2017-05-08T16:20:22.835Z,2.18
2017-05-08T16:22:50.620Z,1.82
2017-05-08T16:25:18.385Z,2.54
2017-05-08T16:27:46.525Z,1.94
2017-05-08T16:30:13.934Z,2.80
2017-05-08T16:32:40.993Z,2.60
2017-05-08T16:35:08.040Z,1.64
2017-05-08T16:37:35.084Z,1.78
2017-05-08T16:40:02.471Z,2.08
2017-05-08T16:42:29.479Z,1.98
2017-05-08T16:44:56.499Z,1.84
2017-05-08T16:47:23.514Z,1.64
2017-05-08T16:49:51.280Z,1.82
2017-05-08T16:52:19.351Z,1.76
2017-05-08T16:54:47.141Z,1.86
2017-05-08T16:57:14.200Z,2.80
2017-05-08T16:59:41.245Z,1.78
2017-05-08T17:02:08.529Z,2.52
2017-05-08T17:04:35.549Z,2.16
2017-05-08T17:07:02.585Z,2.42
2017-05-08T17:09:29.988Z,2.20
2017-05-08T17:11:58.107Z,2.38
2017-05-08T17:14:25.223Z,2.52
2017-05-08T17:16:53.377Z,1.94
2017-05-08T17:19:21.151Z,3.20
2017-05-08T17:21:48.201Z,2.02
2017-05-08T17:24:16.364Z,2.40
2017-05-08T17:26:44.131Z,1.92
2017-05-08T17:29:11.181Z,2.06
2017-05-08T17:31:38.633Z,2.72
2017-05-08T17:34:06.371Z,2.20
2017-05-08T17:36:33.434Z,3.74
2017-05-08T17:39:01.593Z,1.62
2017-05-08T17:41:28.612Z,2.08
2017-05-08T17:43:55.642Z,1.90
2017-05-08T17:46:23.051Z,2.64
2017-05-08T17:48:50.849Z,1.64
2017-05-08T17:51:17.867Z,1.56
2017-05-08T17:53:46.040Z,1.86
2017-05-08T17:56:13.792Z,2.00
2017-05-08T17:58:40.807Z,3.38
2017-05-08T18:01:08.184Z,2.30
2017-05-08T18:03:35.211Z,2.70
2017-05-08T18:06:02.901Z,2.06
2017-05-08T18:08:30.362Z,2.74
2017-05-08T18:10:58.124Z,2.10
2017-05-08T18:13:25.910Z,2.32
2017-05-08T18:15:54.052Z,2.18
2017-05-08T18:18:21.225Z,3.62
2017-05-08T18:20:48.264Z,4.44
2017-05-08T18:23:16.504Z,4.42
2017-05-08T18:25:43.582Z,3.62
2017-05-08T18:28:10.621Z,2.70
2017-05-08T18:30:37.992Z,2.62
2017-05-08T18:33:04.992Z,2.20
2017-05-08T18:35:32.062Z,2.46
2017-05-08T18:37:59.457Z,2.62
2017-05-08T18:40:26.516Z,2.38
2017-05-08T18:42:53.543Z,2.30
2017-05-08T18:45:21.614Z,3.90
2017-05-08T18:47:49.435Z,3.66
2017-05-08T18:50:16.447Z,2.78
2017-05-08T18:52:43.904Z,1.72
2017-05-08T18:55:10.984Z,2.12
2017-05-08T18:57:38.177Z,1.86
2017-05-08T19:00:05.516Z,1.96
2017-05-08T19:02:32.514Z,2.00
2017-05-08T19:05:00.760Z,2.12
2017-05-08T19:07:28.110Z,2.52
2017-05-08T19:09:55.909Z,3.00
2017-05-08T19:12:22.935Z,2.52
2017-05-08T19:14:51.100Z,2.32
2017-05-08T19:17:18.125Z,1.80
2017-05-08T19:19:45.164Z,2.38
2017-05-08T19:22:12.552Z,2.20
2017-05-08T19:24:39.580Z,2.52
2017-05-08T19:27:06.592Z,2.60
2017-05-08T19:29:34.009Z,2.70
2017-05-08T19:32:01.011Z,2.62
2017-05-08T19:34:28.011Z,2.62
2017-05-08T19:36:55.708Z,2.30
2017-05-08T19:39:22.812Z,3.06
2017-05-08T19:41:49.889Z,2.68
2017-05-08T19:44:17.316Z,2.60
2017-05-08T19:46:44.499Z,3.00
2017-05-08T19:49:11.543Z,3.04
2017-05-08T19:51:39.612Z,2.90
2017-05-08T19:54:06.625Z,2.90
2017-05-08T19:56:33.689Z,3.72
2017-05-08T19:59:01.751Z,3.32
2017-05-08T20:01:28.760Z,2.70
2017-05-08T20:03:55.760Z,3.06
2017-05-08T20:06:23.177Z,2.90
2017-05-08T20:08:50.389Z,2.52
2017-05-08T20:11:17.438Z,2.50
2017-05-08T20:13:44.755Z,2.98
2017-05-08T20:16:11.757Z,2.54
2017-05-08T20:18:38.765Z,2.66
2017-05-08T20:21:06.821Z,6.84
2017-05-08T20:23:33.819Z,4.02
2017-05-08T20:26:00.858Z,2.82
2017-05-08T20:28:28.177Z,2.48
2017-05-08T20:30:55.188Z,3.22
2017-05-08T20:33:22.254Z,3.00
2017-05-08T20:35:49.624Z,2.84
2017-05-08T20:38:16.624Z,3.02
2017-05-08T20:40:43.639Z,4.28
2017-05-08T20:43:11.712Z,2.62
2017-05-08T20:45:39.476Z,2.56
2017-05-08T20:48:07.244Z,3.22
2017-05-08T20:50:35.403Z,3.08
2017-05-08T20:53:03.256Z,4.06
2017-05-08T20:55:30.273Z,2.82
2017-05-08T20:57:57.606Z,5.08
2017-05-08T21:00:24.624Z,4.74
2017-05-08T21:02:52.381Z,3.16
2017-05-08T21:05:19.705Z,3.48
2017-05-08T21:07:46.751Z,2.84
2017-05-08T21:10:14.388Z,3.16
2017-05-08T21:12:41.792Z,3.38
2017-05-08T21:15:08.807Z,3.86
2017-05-08T21:17:35.790Z,2.48
2017-05-08T21:20:03.697Z,2.44
2017-05-08T21:22:30.719Z,4.58
2017-05-08T21:24:57.800Z,4.64
2017-05-08T21:27:25.219Z,3.22
2017-05-08T21:29:52.265Z,2.98
2017-05-08T21:32:20.023Z,3.86
2017-05-08T21:34:48.364Z,3.10
2017-05-08T21:37:15.396Z,3.50
2017-05-08T21:39:42.445Z,3.44
2017-05-08T21:42:09.824Z,2.98
2017-05-08T21:44:36.858Z,2.88
2017-05-08T21:47:03.908Z,3.72
2017-05-08T21:49:31.239Z,3.24
2017-05-08T21:51:58.563Z,4.12
2017-05-08T21:54:26.321Z,4.42
2017-05-08T21:56:54.496Z,4.34
2017-05-08T21:59:22.443Z,3.48
2017-05-08T22:01:49.460Z,4.24
2017-05-08T22:04:16.872Z,3.90
2017-05-08T22:06:43.906Z,3.52
2017-05-08T22:09:10.925Z,4.30
2017-05-08T22:11:38.320Z,3.74
2017-05-08T22:14:05.342Z,3.52
2017-05-08T22:16:32.380Z,5.42
2017-05-08T22:18:59.782Z,3.68
2017-05-08T22:21:27.552Z,4.58
2017-05-08T22:23:55.315Z,4.08
2017-05-08T22:26:22.737Z,4.62
2017-05-08T22:28:49.765Z,4.76
2017-05-08T22:31:16.803Z,6.56
2017-05-08T22:33:44.471Z,4.18
2017-05-08T22:36:11.780Z,3.52
2017-05-08T22:38:38.927Z,2.72
2017-05-08T22:41:07.245Z,2.62
2017-05-08T22:43:34.449Z,2.40
2017-05-08T22:46:01.459Z,3.90
2017-05-08T22:48:28.727Z,4.32
2017-05-08T22:50:55.745Z,2.42
2017-05-08T22:53:22.756Z,2.94
2017-05-08T22:55:50.509Z,2.70
2017-05-08T22:58:17.551Z,3.74
2017-05-08T23:00:44.914Z,4.90
2017-05-08T23:03:12.671Z,2.16
2017-05-08T23:05:39.658Z,1.94
2017-05-08T23:08:06.709Z,3.04
2017-05-08T23:10:33.739Z,3.84
2017-05-08T23:13:01.875Z,2.92
2017-05-08T23:15:28.859Z,2.80
2017-05-08T23:17:56.604Z,2.34
2017-05-08T23:20:23.647Z,3.40
2017-05-08T23:22:51.146Z,3.12
2017-05-08T23:25:18.565Z,2.34
2017-05-08T23:27:45.593Z,2.34
2017-05-08T23:30:12.616Z,2.00
2017-05-08T23:32:39.664Z,3.44
2017-05-08T23:35:06.716Z,2.02
2017-05-08T23:37:34.002Z,4.06
2017-05-08T23:40:01.000Z,3.46
2017-05-08T23:42:28.011Z,6.68
2017-05-08T23:44:55.024Z,3.50
2017-05-08T23:47:22.022Z,3.00
2017-05-08T23:49:50.273Z,2.50
2017-05-08T23:52:17.276Z,3.34
2017-05-08T23:54:44.292Z,3.26
2017-05-08T23:57:11.296Z,3.66
2017-05-08T23:59:38.364Z,2.94
